Time;durP1;ratioP1;P1;durP2;ratioP2;P2;SDS_P1;SDS_P2;PMS_P1;PMS_P2;Temp;Humidity;BMP_temperature;BMP_pressure;BME280_temperature;BME280_humidity;BME280_pressure;Samples;Min_cycle;Max_cycle;Signal;HPM_P1;HPM_P2
2023/05/08 00:00:22;;;;;;;1.73;1.63;;;;;;;;;;5076586;28;20036;-22
2023/05/08 00:02:48;;;;;;;1.83;1.73;;;;;;;;;;5076514;28;20107;-23
2023/05/08 00:05:14;;;;;;;1.88;1.77;;;;;;;;;;5076513;28;20031;-21
2023/05/08 00:07:40;;;;;;;1.80;1.70;;;;;;;;;;5076500;28;20506;-21
2023/05/08 00:10:07;;;;;;;1.98;1.88;;;;;;;;;;5076370;28;20436;-21
2023/05/08 00:12:34;;;;;;;1.70;1.60;;;;;;;;;;5076208;28;20517;-22
2023/05/08 00:15:00;;;;;;;2.28;2.17;;;;;;;;;;5076578;28;20046;-22
2023/05/08 00:17:26;;;;;;;1.70;1.60;;;;;;;;;;5076235;28;20025;-23
2023/05/08 00:19:52;;;;;;;2.17;1.95;;;;;;;;;;5076475;28;20025;-22
2023/05/08 00:22:19;;;;;;;1.38;1.38;;;;;;;;;;5076285;28;20029;-22
2023/05/08 00:24:45;;;;;;;1.77;1.70;;;;;;;;;;5076118;28;20031;-22
2023/05/08 00:27:11;;;;;;;1.80;1.70;;;;;;;;;;5075943;28;20028;-23
2023/05/08 00:29:39;;;;;;;1.75;1.65;;;;;;;;;;5076290;28;20028;-21
2023/05/08 00:32:05;;;;;;;1.80;1.70;;;;;;;;;;5076070;28;20333;-22
2023/05/08 00:34:31;;;;;;;1.90;1.80;;;;;;;;;;5075958;28;20399;-25
2023/05/08 00:36:58;;;;;;;1.88;1.77;;;;;;;;;;5076132;28;20024;-21
2023/05/08 00:39:24;;;;;;;1.80;1.70;;;;;;;;;;5076027;28;20395;-21
2023/05/08 00:41:50;;;;;;;1.55;1.55;;;;;;;;;;5075706;28;20121;-21
2023/05/08 00:44:16;;;;;;;1.90;1.80;;;;;;;;;;5075930;28;20032;-22
2023/05/08 00:46:42;;;;;;;1.42;1.42;;;;;;;;;;5075629;28;20028;-22
2023/05/08 00:49:13;;;;;;;1.58;1.50;;;;;;;;;;5075848;28;20455;-22
2023/05/08 00:51:46;;;;;;;2.17;2.08;;;;;;;;;;5075398;28;20045;-22
2023/05/08 00:54:13;;;;;;;1.40;1.40;;;;;;;;;;5075511;28;20056;-21
2023/05/08 00:56:40;;;;;;;1.40;1.40;;;;;;;;;;5075484;28;20030;-21
2023/05/08 00:59:09;;;;;;;1.77;1.70;;;;;;;;;;5075361;28;20051;-22
2023/05/08 01:01:36;;;;;;;1.60;1.50;;;;;;;;;;5075642;28;20036;-22
2023/05/08 01:04:03;;;;;;;2.03;1.92;;;;;;;;;;5075519;28;20052;-21
2023/05/08 01:06:29;;;;;;;1.42;1.42;;;;;;;;;;5075192;28;20064;-21
2023/05/08 01:08:55;;;;;;;1.65;1.58;;;;;;;;;;5075506;28;20047;-21
2023/05/08 01:11:21;;;;;;;1.48;1.40;;;;;;;;;;5075103;28;20335;-22
2023/05/08 01:13:47;;;;;;;1.80;1.70;;;;;;;;;;5075103;28;20020;-22
2023/05/08 01:16:15;;;;;;;1.70;1.60;;;;;;;;;;5075105;28;20032;-22
2023/05/08 01:18:44;;;;;;;1.65;1.55;;;;;;;;;;5075009;28;20032;-23
2023/05/08 01:21:13;;;;;;;1.77;1.67;;;;;;;;;;5075271;28;20039;-22
2023/05/08 01:23:51;;;;;;;1.60;1.55;;;;;;;;;;5074951;28;20094;-21
2023/05/08 01:26:17;;;;;;;2.22;2.03;;;;;;;;;;5075281;28;20371;-21
2023/05/08 01:28:49;;;;;;;1.50;1.50;;;;;;;;;;5075001;28;20565;-22
2023/05/08 01:31:15;;;;;;;1.38;1.38;;;;;;;;;;5075077;28;20324;-21
2023/05/08 01:33:44;;;;;;;1.75;1.65;;;;;;;;;;5075105;28;20451;-24
2023/05/08 01:36:11;;;;;;;1.55;1.45;;;;;;;;;;5075109;28;20024;-22
2023/05/08 01:38:44;;;;;;;1.50;1.50;;;;;;;;;;5074604;28;20016;-23
2023/05/08 01:41:20;;;;;;;1.42;1.40;;;;;;;;;;5075058;28;20363;-21
2023/05/08 01:44:05;;;;;;;1.40;1.40;;;;;;;;;;5074687;28;20024;-22
2023/05/08 01:46:33;;;;;;;1.17;1.17;;;;;;;;;;5074713;28;20032;-22
2023/05/08 01:49:02;;;;;;;1.20;1.20;;;;;;;;;;5074652;28;20043;-22
2023/05/08 01:51:28;;;;;;;1.48;1.45;;;;;;;;;;5074394;28;20040;-22
2023/05/08 01:54:00;;;;;;;1.20;1.20;;;;;;;;;;5074623;28;20020;-21
2023/05/08 01:56:28;;;;;;;1.83;1.73;;;;;;;;;;5075178;28;20400;-21
2023/05/08 01:58:56;;;;;;;1.38;1.38;;;;;;;;;;5074546;28;20032;-22
2023/05/08 02:01:24;;;;;;;1.70;1.60;;;;;;;;;;5074560;28;20094;-22
2023/05/08 02:03:51;;;;;;;1.30;1.30;;;;;;;;;;5074449;28;20094;-21
2023/05/08 02:06:19;;;;;;;1.27;1.27;;;;;;;;;;5074803;28;20373;-23
2023/05/08 02:08:46;;;;;;;1.60;1.50;;;;;;;;;;5074490;28;20020;-22
2023/05/08 02:11:13;;;;;;;1.30;1.30;;;;;;;;;;5074622;28;20029;-22
2023/05/08 02:13:39;;;;;;;1.33;1.33;;;;;;;;;;5074422;28;20448;-21
2023/05/08 02:16:07;;;;;;;1.70;1.60;;;;;;;;;;5074415;28;20036;-21
2023/05/08 02:18:34;;;;;;;1.35;1.35;;;;;;;;;;5074930;28;20147;-22
2023/05/08 02:21:01;;;;;;;1.60;1.50;;;;;;;;;;5074914;28;20029;-22
2023/05/08 02:23:28;;;;;;;1.42;1.42;;;;;;;;;;5074530;28;20028;-22
2023/05/08 02:25:55;;;;;;;1.40;1.40;;;;;;;;;;5074345;28;20410;-24
2023/05/08 02:28:22;;;;;;;1.63;1.52;;;;;;;;;;5074296;28;20032;-22
2023/05/08 02:30:49;;;;;;;1.35;1.35;;;;;;;;;;5074241;28;20036;-23
2023/05/08 02:33:16;;;;;;;1.58;1.48;;;;;;;;;;5073255;28;20056;-21
2023/05/08 02:35:43;;;;;;;1.60;1.60;;;;;;;;;;5074252;28;20052;-21
2023/05/08 02:38:11;;;;;;;1.70;1.60;;;;;;;;;;5074468;28;20035;-22
2023/05/08 02:40:39;;;;;;;1.17;1.17;;;;;;;;;;5074180;28;20078;-22
2023/05/08 02:43:06;;;;;;;1.55;1.45;;;;;;;;;;5074053;28;20476;-23
2023/05/08 02:45:40;;;;;;;1.75;1.65;;;;;;;;;;5074097;28;20028;-23
2023/05/08 02:48:12;;;;;;;1.33;1.33;;;;;;;;;;5074401;28;20081;-22
2023/05/08 02:50:45;;;;;;;1.00;1.00;;;;;;;;;;5076201;28;20424;-21
2023/05/08 02:53:15;;;;;;;1.60;1.50;;;;;;;;;;5078071;28;20036;-25
2023/05/08 02:55:53;;;;;;;1.80;1.70;;;;;;;;;;5077820;28;20511;-26
2023/05/08 02:58:24;;;;;;;1.50;1.40;;;;;;;;;;5077744;28;20025;-21
2023/05/08 03:01:18;;;;;;;1.50;1.50;;;;;;;;;;5077704;28;20035;-23
2023/05/08 03:03:46;;;;;;;1.45;1.40;;;;;;;;;;5075966;28;20028;-21
2023/05/08 03:06:13;;;;;;;1.70;1.60;;;;;;;;;;5077890;28;20355;-22
2023/05/08 03:08:40;;;;;;;1.70;1.60;;;;;;;;;;5077554;28;20020;-21
2023/05/08 03:11:13;;;;;;;1.30;1.30;;;;;;;;;;5077382;28;20043;-22
2023/05/08 03:13:41;;;;;;;1.20;1.20;;;;;;;;;;5077408;28;20021;-21
2023/05/08 03:16:10;;;;;;;1.10;1.10;;;;;;;;;;5077993;28;20105;-23
2023/05/08 03:18:39;;;;;;;1.10;1.10;;;;;;;;;;5077424;28;20146;-21
2023/05/08 03:21:05;;;;;;;1.50;1.40;;;;;;;;;;5077887;28;20063;-22
2023/05/08 03:23:33;;;;;;;1.30;1.30;;;;;;;;;;5077368;28;20104;-21
2023/05/08 03:26:00;;;;;;;1.23;1.23;;;;;;;;;;5077235;28;20095;-22
2023/05/08 03:28:27;;;;;;;1.50;1.40;;;;;;;;;;5076269;28;20021;-22
2023/05/08 03:30:53;;;;;;;1.50;1.40;;;;;;;;;;5077107;28;20024;-22
2023/05/08 03:33:21;;;;;;;1.55;1.48;;;;;;;;;;5077077;28;20021;-21
2023/05/08 03:35:47;;;;;;;1.20;1.20;;;;;;;;;;5077022;28;20017;-24
2023/05/08 03:38:14;;;;;;;1.15;1.15;;;;;;;;;;5077053;28;20094;-22
2023/05/08 03:40:43;;;;;;;1.40;1.40;;;;;;;;;;5077027;28;20394;-27
2023/05/08 03:43:10;;;;;;;1.35;1.35;;;;;;;;;;5076806;28;20032;-22
2023/05/08 03:45:37;;;;;;;1.50;1.42;;;;;;;;;;5077170;28;20025;-21
2023/05/08 03:48:04;;;;;;;1.65;1.55;;;;;;;;;;5077084;28;20381;-22
2023/05/08 03:50:31;;;;;;;1.33;1.33;;;;;;;;;;5076748;28;20041;-23
2023/05/08 03:52:58;;;;;;;1.17;1.17;;;;;;;;;;5076587;28;20093;-21
2023/05/08 03:55:25;;;;;;;1.33;1.33;;;;;;;;;;5076946;28;20309;-21
2023/05/08 03:57:57;;;;;;;1.38;1.38;;;;;;;;;;5076911;28;20051;-22
2023/05/08 04:00:43;;;;;;;1.65;1.55;;;;;;;;;;5076155;28;20035;-21
2023/05/08 04:03:12;;;;;;;1.42;1.42;;;;;;;;;;5076677;28;20067;-26
2023/05/08 04:05:46;;;;;;;1.40;1.33;;;;;;;;;;5076023;28;20039;-22
2023/05/08 04:08:13;;;;;;;1.42;1.42;;;;;;;;;;5075326;28;20024;-21
2023/05/08 04:10:43;;;;;;;1.10;1.10;;;;;;;;;;5076627;28;20032;-25
2023/05/08 04:13:13;;;;;;;1.45;1.35;;;;;;;;;;5076364;28;20032;-22
2023/05/08 04:15:51;;;;;;;1.30;1.30;;;;;;;;;;5076110;28;20082;-22
2023/05/08 04:18:18;;;;;;;1.20;1.20;;;;;;;;;;5076131;28;20435;-22
2023/05/08 04:20:46;;;;;;;1.27;1.27;;;;;;;;;;5076388;28;20024;-21
2023/05/08 04:23:15;;;;;;;1.30;1.20;;;;;;;;;;5075741;28;20344;-22
2023/05/08 04:25:42;;;;;;;2.00;1.90;;;;;;;;;;5076206;28;20047;-21
2023/05/08 04:28:08;;;;;;;1.42;1.33;;;;;;;;;;5075830;28;20410;-22
2023/05/08 04:30:34;;;;;;;1.15;1.15;;;;;;;;;;5076076;28;20025;-22
2023/05/08 04:33:04;;;;;;;1.40;1.30;;;;;;;;;;5075597;28;20025;-22
2023/05/08 04:35:30;;;;;;;1.45;1.40;;;;;;;;;;5075528;28;20028;-22
2023/05/08 04:37:58;;;;;;;2.67;1.20;;;;;;;;;;5075716;28;20024;-22
2023/05/08 04:40:24;;;;;;;4.22;1.35;;;;;;;;;;5075598;28;20035;-23
2023/05/08 04:42:50;;;;;;;2.90;1.40;;;;;;;;;;5075505;28;20050;-22
2023/05/08 04:45:17;;;;;;;5.80;1.48;;;;;;;;;;5075551;28;20473;-22
2023/05/08 04:47:43;;;;;;;4.43;1.85;;;;;;;;;;5075435;28;20032;-22
2023/05/08 04:50:09;;;;;;;1.17;1.10;;;;;;;;;;5075200;28;20048;-22
2023/05/08 04:52:36;;;;;;;1.67;1.40;;;;;;;;;;5074811;28;20120;-22
2023/05/08 04:55:02;;;;;;;1.48;1.23;;;;;;;;;;5074896;28;20021;-21
2023/05/08 04:57:28;;;;;;;1.40;1.30;;;;;;;;;;5075175;28;20329;-22
2023/05/08 04:59:54;;;;;;;3.42;1.67;;;;;;;;;;5075408;28;20017;-23
2023/05/08 05:02:20;;;;;;;1.35;1.25;;;;;;;;;;5075074;28;20032;-21
2023/05/08 05:04:46;;;;;;;1.30;1.30;;;;;;;;;;5075092;28;20467;-22
2023/05/08 05:07:12;;;;;;;1.20;1.20;;;;;;;;;;5075298;28;20032;-22
2023/05/08 05:09:38;;;;;;;4.78;1.30;;;;;;;;;;5075278;28;20485;-21
2023/05/08 05:12:06;;;;;;;1.67;1.58;;;;;;;;;;5074465;28;20104;-22
2023/05/08 05:14:32;;;;;;;2.00;1.80;;;;;;;;;;5074846;28;20032;-22
2023/05/08 05:16:58;;;;;;;1.23;1.23;;;;;;;;;;5074935;28;20443;-22
2023/05/08 05:19:24;;;;;;;1.70;1.50;;;;;;;;;;5075324;28;20020;-21
2023/05/08 05:21:50;;;;;;;1.65;1.40;;;;;;;;;;5075033;28;20379;-22
2023/05/08 05:24:16;;;;;;;1.40;1.30;;;;;;;;;;5074786;28;20024;-22
2023/05/08 05:26:42;;;;;;;1.60;1.50;;;;;;;;;;5075165;28;20024;-21
2023/05/08 05:29:09;;;;;;;2.22;1.42;;;;;;;;;;5074867;28;20052;-23
2023/05/08 05:31:35;;;;;;;1.50;1.40;;;;;;;;;;5074920;28;20445;-22
2023/05/08 05:34:01;;;;;;;1.20;1.10;;;;;;;;;;5074859;28;20436;-21
2023/05/08 05:36:28;;;;;;;1.30;1.20;;;;;;;;;;5074629;28;20329;-24
2023/05/08 05:38:54;;;;;;;1.48;1.40;;;;;;;;;;5074812;28;20043;-22
2023/05/08 05:41:21;;;;;;;4.93;1.60;;;;;;;;;;5074490;28;20043;-25
2023/05/08 05:43:47;;;;;;;1.77;1.35;;;;;;;;;;5074338;28;20033;-22
2023/05/08 05:46:13;;;;;;;2.40;1.45;;;;;;;;;;5074734;28;20032;-22
2023/05/08 05:48:39;;;;;;;1.30;1.30;;;;;;;;;;5074704;28;20024;-21
2023/05/08 05:51:05;;;;;;;1.48;1.38;;;;;;;;;;5074218;28;20055;-23
2023/05/08 05:53:32;;;;;;;2.38;1.25;;;;;;;;;;5074207;28;20489;-23
2023/05/08 05:55:58;;;;;;;1.65;1.55;;;;;;;;;;5073543;28;20352;-21
2023/05/08 05:58:24;;;;;;;2.13;1.20;;;;;;;;;;5074234;28;20020;-23
2023/05/08 06:03:26;;;;;;;1.13;0.98;;;;;;;;;;5296393;22;20440;-23
2023/05/08 06:05:52;;;;;;;2.47;1.40;;;;;;;;;;5014441;28;20467;-22
2023/05/08 06:08:19;;;;;;;2.17;1.60;;;;;;;;;;5014295;28;20049;-23
2023/05/08 06:10:45;;;;;;;2.78;1.40;;;;;;;;;;5014152;28;20053;-23
2023/05/08 06:13:11;;;;;;;1.83;1.73;;;;;;;;;;5014002;28;20040;-21
2023/05/08 06:15:37;;;;;;;1.77;1.67;;;;;;;;;;5014480;28;20128;-22
2023/05/08 06:18:04;;;;;;;1.70;1.40;;;;;;;;;;5014237;28;20471;-22
2023/05/08 06:20:30;;;;;;;2.30;1.40;;;;;;;;;;4997181;28;20067;-23
2023/05/08 06:22:56;;;;;;;1.50;1.40;;;;;;;;;;5014095;28;20388;-23
2023/05/08 06:25:22;;;;;;;2.10;1.90;;;;;;;;;;5017596;28;20030;-22
2023/05/08 06:27:48;;;;;;;1.70;1.60;;;;;;;;;;5018248;28;20356;-23
2023/05/08 06:30:14;;;;;;;3.22;2.05;;;;;;;;;;5017899;28;20490;-23
2023/05/08 06:32:40;;;;;;;4.07;1.80;;;;;;;;;;5017666;28;20068;-22
2023/05/08 06:35:07;;;;;;;31.95;5.80;;;;;;;;;;5018133;28;20022;-22
2023/05/08 06:37:33;;;;;;;1.80;1.70;;;;;;;;;;5017668;28;20095;-22
2023/05/08 06:39:59;;;;;;;3.15;2.28;;;;;;;;;;5017847;28;20441;-22
2023/05/08 06:42:26;;;;;;;3.67;1.75;;;;;;;;;;5018029;28;20068;-24
2023/05/08 06:44:52;;;;;;;6.20;1.80;;;;;;;;;;5017957;28;20026;-23
2023/05/08 06:47:18;;;;;;;2.03;1.70;;;;;;;;;;5018184;28;20044;-22
2023/05/08 06:49:45;;;;;;;5.03;1.80;;;;;;;;;;5018144;28;20425;-24
2023/05/08 06:52:11;;;;;;;6.28;3.15;;;;;;;;;;5017864;28;20041;-22
2023/05/08 06:54:37;;;;;;;4.50;1.77;;;;;;;;;;5017875;28;20026;-23
2023/05/08 06:57:03;;;;;;;2.25;1.80;;;;;;;;;;5017679;28;20025;-23
2023/05/08 06:59:29;;;;;;;4.80;1.70;;;;;;;;;;5018035;28;20026;-21
2023/05/08 07:01:55;;;;;;;4.50;1.90;;;;;;;;;;5017408;28;20029;-24
2023/05/08 07:04:21;;;;;;;3.47;1.80;;;;;;;;;;4999937;28;20045;-23
2023/05/08 07:06:48;;;;;;;8.60;2.13;;;;;;;;;;5017547;28;20021;-23
2023/05/08 07:09:15;;;;;;;6.20;2.10;;;;;;;;;;5000149;28;20368;-23
2023/05/08 07:11:41;;;;;;;6.97;2.10;;;;;;;;;;5017113;28;20057;-23
2023/05/08 07:14:07;;;;;;;5.50;1.75;;;;;;;;;;5017203;28;20026;-23
2023/05/08 07:16:34;;;;;;;3.40;1.80;;;;;;;;;;5000083;28;20030;-23
2023/05/08 07:19:00;;;;;;;6.28;1.80;;;;;;;;;;5017752;28;20025;-23
2023/05/08 07:21:26;;;;;;;3.47;1.63;;;;;;;;;;5000138;28;20034;-22
2023/05/08 07:23:53;;;;;;;5.60;2.30;;;;;;;;;;5017484;28;20330;-23
2023/05/08 07:26:20;;;;;;;1.77;1.67;;;;;;;;;;5017106;28;20081;-21
2023/05/08 07:28:46;;;;;;;7.72;1.88;;;;;;;;;;5016974;28;20092;-22
2023/05/08 07:31:12;;;;;;;6.75;2.03;;;;;;;;;;5016858;28;20044;-22
2023/05/08 07:33:39;;;;;;;1.90;1.80;;;;;;;;;;5017683;28;20326;-27
2023/05/08 07:36:05;;;;;;;2.45;1.50;;;;;;;;;;5016253;28;20033;-23
2023/05/08 07:38:31;;;;;;;4.95;1.70;;;;;;;;;;5017611;28;20030;-23
2023/05/08 07:41:00;;;;;;;2.95;1.88;;;;;;;;;;5017025;28;20026;-23
2023/05/08 07:43:26;;;;;;;2.08;1.80;;;;;;;;;;5016914;28;20033;-22
2023/05/08 07:45:52;;;;;;;4.97;2.13;;;;;;;;;;5016709;28;20061;-22
2023/05/08 07:48:18;;;;;;;2.90;1.67;;;;;;;;;;5017033;28;20105;-22
2023/05/08 07:50:45;;;;;;;4.25;1.85;;;;;;;;;;5017017;28;20393;-23
2023/05/08 07:53:11;;;;;;;4.13;1.90;;;;;;;;;;5016169;28;20036;-22
2023/05/08 07:55:37;;;;;;;2.38;1.60;;;;;;;;;;5016839;28;20128;-23
2023/05/08 07:58:03;;;;;;;4.75;1.88;;;;;;;;;;5017153;28;20022;-21
2023/05/08 08:00:30;;;;;;;4.97;2.10;;;;;;;;;;5016943;28;20018;-22
2023/05/08 08:02:56;;;;;;;5.88;2.72;;;;;;;;;;5016605;28;20051;-22
2023/05/08 08:05:22;;;;;;;4.28;2.80;;;;;;;;;;5016822;28;20097;-23
2023/05/08 08:07:48;;;;;;;4.60;3.00;;;;;;;;;;5016791;28;20452;-24
2023/05/08 08:10:15;;;;;;;7.13;3.55;;;;;;;;;;5016765;28;20037;-24
2023/05/08 08:12:41;;;;;;;4.10;2.00;;;;;;;;;;5016245;28;20025;-23
2023/05/08 08:15:07;;;;;;;6.20;2.33;;;;;;;;;;5016786;28;20504;-22
2023/05/08 08:17:33;;;;;;;4.63;2.58;;;;;;;;;;5016500;28;20026;-23
2023/05/08 08:19:59;;;;;;;4.53;2.90;;;;;;;;;;5016257;28;20040;-21
2023/05/08 08:22:26;;;;;;;2.75;2.55;;;;;;;;;;5016171;28;20064;-23
2023/05/08 08:24:54;;;;;;;2.30;2.03;;;;;;;;;;5016107;28;20053;-21
2023/05/08 08:27:20;;;;;;;4.20;2.20;;;;;;;;;;5015996;28;20026;-25
2023/05/08 08:29:46;;;;;;;4.20;2.20;;;;;;;;;;5016197;28;20060;-21
2023/05/08 08:32:12;;;;;;;5.20;2.53;;;;;;;;;;5016068;28;20026;-24
2023/05/08 08:34:39;;;;;;;4.32;2.17;;;;;;;;;;4998568;28;20021;-23
2023/05/08 08:37:05;;;;;;;11.98;3.55;;;;;;;;;;5016460;28;20033;-22
2023/05/08 08:39:33;;;;;;;4.57;3.75;;;;;;;;;;5015935;28;20352;-23
2023/05/08 08:41:59;;;;;;;5.28;3.35;;;;;;;;;;5016626;28;20048;-22
2023/05/08 08:44:26;;;;;;;7.57;3.33;;;;;;;;;;5016175;28;20033;-23
2023/05/08 08:46:52;;;;;;;3.85;2.22;;;;;;;;;;5015898;28;20109;-23
2023/05/08 08:49:24;;;;;;;4.40;2.72;;;;;;;;;;5015865;28;20034;-23
2023/05/08 08:51:52;;;;;;;2.97;2.60;;;;;;;;;;5015952;28;20113;-23
2023/05/08 08:54:23;;;;;;;2.67;2.30;;;;;;;;;;5016046;28;20096;-23
2023/05/08 08:56:50;;;;;;;3.85;1.92;;;;;;;;;;5016009;28;20113;-22
2023/05/08 08:59:17;;;;;;;10.18;2.83;;;;;;;;;;5015897;28;20465;-23
2023/05/08 09:01:53;;;;;;;5.63;2.50;;;;;;;;;;5015789;28;20057;-23
2023/05/08 09:04:19;;;;;;;3.45;2.97;;;;;;;;;;5015399;28;20046;-23
2023/05/08 09:06:45;;;;;;;2.65;2.10;;;;;;;;;;5015495;28;20456;-22
2023/05/08 09:09:12;;;;;;;2.47;2.28;;;;;;;;;;5015575;28;20034;-23
2023/05/08 09:11:40;;;;;;;2.55;2.35;;;;;;;;;;5015648;28;20058;-23
2023/05/08 09:14:07;;;;;;;3.15;2.00;;;;;;;;;;5015321;28;20026;-23
2023/05/08 09:16:33;;;;;;;5.00;2.40;;;;;;;;;;5015201;28;20033;-22
2023/05/08 09:18:59;;;;;;;2.50;2.20;;;;;;;;;;5015281;28;20041;-23
2023/05/08 09:21:27;;;;;;;3.00;2.25;;;;;;;;;;4997862;28;20467;-23
2023/05/08 09:23:56;;;;;;;5.63;2.58;;;;;;;;;;5015140;28;20026;-22
2023/05/08 09:26:34;;;;;;;3.70;2.50;;;;;;;;;;5015338;28;20310;-24
2023/05/08 09:29:18;;;;;;;3.30;2.08;;;;;;;;;;5015062;28;20030;-22
2023/05/08 09:31:46;;;;;;;3.08;2.88;;;;;;;;;;5014723;28;20022;-23
2023/05/08 09:34:39;;;;;;;3.70;2.20;;;;;;;;;;5014624;28;20029;-23
2023/05/08 09:37:05;;;;;;;2.45;2.25;;;;;;;;;;5011058;28;20361;-24
2023/05/08 09:39:31;;;;;;;4.07;1.60;;;;;;;;;;5014817;28;20127;-24
2023/05/08 09:41:57;;;;;;;3.88;2.13;;;;;;;;;;5015333;28;20029;-22
2023/05/08 09:44:23;;;;;;;2.15;2.05;;;;;;;;;;5014708;28;20049;-23
2023/05/08 09:46:49;;;;;;;2.30;1.98;;;;;;;;;;5014802;28;20399;-22
2023/05/08 09:49:19;;;;;;;2.72;1.77;;;;;;;;;;5014682;28;20117;-21
2023/05/08 09:51:54;;;;;;;5.40;2.08;;;;;;;;;;5014350;28;20084;-23
2023/05/08 09:54:20;;;;;;;2.40;2.20;;;;;;;;;;4997825;28;20030;-22
2023/05/08 09:56:47;;;;;;;5.03;2.58;;;;;;;;;;5014658;28;20045;-22
2023/05/08 09:59:23;;;;;;;5.57;2.17;;;;;;;;;;4996859;28;20417;-22
2023/05/08 10:01:49;;;;;;;3.85;2.10;;;;;;;;;;5014607;28;20468;-21
2023/05/08 10:04:16;;;;;;;3.65;2.30;;;;;;;;;;5014416;28;20432;-22
2023/05/08 10:06:42;;;;;;;8.90;3.17;;;;;;;;;;5014599;28;20449;-23
2023/05/08 10:09:11;;;;;;;1.95;1.85;;;;;;;;;;4997904;28;20038;-23
2023/05/08 10:11:39;;;;;;;3.63;2.08;;;;;;;;;;5014706;28;20416;-23
2023/05/08 10:14:05;;;;;;;7.05;3.17;;;;;;;;;;5014491;28;20042;-24
2023/05/08 10:16:36;;;;;;;3.78;1.98;;;;;;;;;;5014881;28;20036;-24
2023/05/08 10:19:06;;;;;;;2.67;1.85;;;;;;;;;;5014482;28;20061;-21
2023/05/08 10:21:36;;;;;;;2.75;2.20;;;;;;;;;;5014552;28;20109;-23
2023/05/08 10:24:05;;;;;;;3.13;2.30;;;;;;;;;;5013881;28;20491;-23
2023/05/08 10:26:31;;;;;;;4.43;2.25;;;;;;;;;;5014372;28;20042;-25
2023/05/08 10:28:58;;;;;;;4.53;2.58;;;;;;;;;;5014698;28;20372;-22
2023/05/08 10:31:26;;;;;;;2.72;2.38;;;;;;;;;;5014521;28;20044;-22
2023/05/08 10:33:55;;;;;;;2.90;2.42;;;;;;;;;;5014303;28;20444;-28
2023/05/08 10:36:24;;;;;;;4.70;2.58;;;;;;;;;;5014206;28;20114;-22
2023/05/08 10:38:51;;;;;;;6.50;2.97;;;;;;;;;;5014589;28;20020;-23
2023/05/08 10:41:18;;;;;;;10.85;2.63;;;;;;;;;;5014423;28;20037;-23
2023/05/08 10:43:45;;;;;;;8.55;3.25;;;;;;;;;;5014613;28;20073;-29
2023/05/08 10:46:22;;;;;;;7.10;2.88;;;;;;;;;;5014214;28;20457;-25
2023/05/08 10:49:06;;;;;;;4.47;1.98;;;;;;;;;;5014558;28;20018;-23
2023/05/08 10:51:33;;;;;;;2.03;1.92;;;;;;;;;;5014539;28;20400;-22
2023/05/08 10:54:03;;;;;;;4.60;2.10;;;;;;;;;;5014510;28;20322;-24
2023/05/08 10:56:30;;;;;;;8.20;2.40;;;;;;;;;;5014901;28;20029;-22
2023/05/08 10:58:57;;;;;;;9.00;2.47;;;;;;;;;;5014239;28;20092;-23
2023/05/08 11:01:23;;;;;;;4.88;2.45;;;;;;;;;;5014424;28;20484;-23
2023/05/08 11:03:50;;;;;;;9.85;3.03;;;;;;;;;;5013954;28;20465;-23
2023/05/08 11:06:16;;;;;;;2.90;2.13;;;;;;;;;;5014218;28;20037;-23
2023/05/08 11:08:46;;;;;;;5.28;2.08;;;;;;;;;;5014747;28;20037;-23
2023/05/08 11:11:27;;;;;;;20.13;4.55;;;;;;;;;;5015517;28;20523;-22
2023/05/08 11:13:55;;;;;;;7.95;2.67;;;;;;;;;;5017734;28;20026;-24
2023/05/08 11:16:40;;;;;;;2.97;2.65;;;;;;;;;;5018150;28;20037;-22
2023/05/08 11:19:16;;;;;;;4.50;2.40;;;;;;;;;;5017366;28;20049;-24
2023/05/08 11:22:01;;;;;;;2.97;2.55;;;;;;;;;;5017677;28;20104;-21
2023/05/08 11:24:37;;;;;;;2.58;2.38;;;;;;;;;;5017546;28;20033;-23
2023/05/08 11:27:03;;;;;;;5.55;2.53;;;;;;;;;;5017319;28;20034;-21
2023/05/08 11:29:29;;;;;;;3.38;3.08;;;;;;;;;;5017304;28;20037;-23
2023/05/08 11:31:56;;;;;;;6.82;2.28;;;;;;;;;;5017021;28;20030;-22
2023/05/08 11:34:40;;;;;;;9.52;2.75;;;;;;;;;;5017109;28;20145;-23
2023/05/08 11:37:10;;;;;;;4.63;2.40;;;;;;;;;;5017067;28;20036;-24
2023/05/08 11:39:36;;;;;;;10.55;3.42;;;;;;;;;;5017031;28;20018;-23
2023/05/08 11:42:37;;;;;;;2.85;2.40;;;;;;;;;;5016984;28;20109;-23
2023/05/08 11:45:03;;;;;;;;;;;;;;;;;;4938542;29;20040;-22
2023/05/08 11:47:36;;;;;;;2.67;2.33;;;;;;;;;;5001047;28;20264;-22
2023/05/08 11:50:03;;;;;;;8.68;2.47;;;;;;;;;;5017172;28;20041;-21
2023/05/08 11:52:31;;;;;;;6.22;3.17;;;;;;;;;;4999403;28;20025;-23
2023/05/08 11:55:00;;;;;;;7.72;3.13;;;;;;;;;;5017575;28;20022;-23
2023/05/08 11:57:27;;;;;;;5.63;2.95;;;;;;;;;;5016806;28;20025;-21
2023/05/08 11:59:53;;;;;;;4.55;3.25;;;;;;;;;;4999556;28;20425;-21
2023/05/08 12:02:19;;;;;;;6.68;3.25;;;;;;;;;;5016317;28;20066;-22
2023/05/08 12:04:46;;;;;;;3.20;2.92;;;;;;;;;;5017057;28;20025;-22
2023/05/08 12:07:12;;;;;;;4.40;2.50;;;;;;;;;;5016581;28;20295;-22
2023/05/08 12:09:38;;;;;;;5.68;3.25;;;;;;;;;;5016585;28;20105;-22
2023/05/08 12:12:04;;;;;;;8.38;2.80;;;;;;;;;;5016699;28;20032;-22
2023/05/08 12:14:30;;;;;;;6.00;2.97;;;;;;;;;;5016502;28;20026;-23
2023/05/08 12:16:57;;;;;;;3.55;3.20;;;;;;;;;;5016395;28;20086;-21
2023/05/08 12:19:23;;;;;;;4.13;3.33;;;;;;;;;;5016038;28;20022;-23
2023/05/08 12:21:50;;;;;;;3.13;2.80;;;;;;;;;;5016241;28;20374;-23
2023/05/08 12:24:21;;;;;;;7.72;3.45;;;;;;;;;;5016233;28;20084;-24
2023/05/08 12:26:49;;;;;;;4.85;3.88;;;;;;;;;;5016540;28;20030;-23
2023/05/08 12:29:18;;;;;;;3.80;2.80;;;;;;;;;;5016118;28;20040;-24
2023/05/08 12:31:44;;;;;;;6.72;3.50;;;;;;;;;;5016047;28;20026;-24
2023/05/08 12:34:11;;;;;;;3.88;3.03;;;;;;;;;;5016016;28;20125;-21
2023/05/08 12:36:37;;;;;;;7.72;3.33;;;;;;;;;;5015688;28;20035;-22
2023/05/08 12:39:11;;;;;;;11.88;3.08;;;;;;;;;;5016078;28;20087;-22
2023/05/08 12:41:47;;;;;;;6.40;3.13;;;;;;;;;;5015966;28;20117;-23
2023/05/08 12:44:20;;;;;;;4.32;3.17;;;;;;;;;;5015892;28;20080;-23
2023/05/08 12:46:47;;;;;;;4.88;2.95;;;;;;;;;;4998305;28;20026;-23
2023/05/08 12:49:13;;;;;;;3.95;3.30;;;;;;;;;;5015729;28;20022;-23
2023/05/08 12:51:45;;;;;;;4.13;2.80;;;;;;;;;;5015517;28;20036;-23
2023/05/08 12:54:11;;;;;;;8.23;3.08;;;;;;;;;;5016158;28;20403;-24
2023/05/08 12:56:43;;;;;;;3.08;2.88;;;;;;;;;;4998391;28;20042;-22
2023/05/08 12:59:09;;;;;;;9.50;3.05;;;;;;;;;;5015574;28;20022;-23
2023/05/08 13:01:35;;;;;;;6.45;3.00;;;;;;;;;;5015701;28;20029;-22
2023/05/08 13:04:01;;;;;;;4.57;3.28;;;;;;;;;;5015925;28;20173;-24
2023/05/08 13:06:27;;;;;;;4.78;4.32;;;;;;;;;;5015742;28;20079;-23
2023/05/08 13:08:54;;;;;;;3.80;2.83;;;;;;;;;;4998039;28;20030;-24
2023/05/08 13:11:30;;;;;;;6.65;3.80;;;;;;;;;;5015242;28;20361;-24
2023/05/08 13:13:56;;;;;;;6.88;3.50;;;;;;;;;;5015294;28;20026;-23
2023/05/08 13:16:22;;;;;;;6.50;3.45;;;;;;;;;;5015311;28;20026;-22
2023/05/08 13:18:49;;;;;;;5.93;3.40;;;;;;;;;;5015280;28;20025;-22
2023/05/08 13:21:15;;;;;;;4.32;3.20;;;;;;;;;;5015188;28;20026;-21
2023/05/08 13:23:42;;;;;;;7.85;4.32;;;;;;;;;;5016095;28;20344;-21
2023/05/08 13:26:08;;;;;;;7.55;4.05;;;;;;;;;;5015120;28;20103;-22
2023/05/08 13:28:34;;;;;;;5.88;3.17;;;;;;;;;;5015419;28;20026;-22
2023/05/08 13:31:00;;;;;;;10.85;4.20;;;;;;;;;;5015051;28;20496;-23
2023/05/08 13:33:26;;;;;;;10.93;3.35;;;;;;;;;;5014536;28;20444;-23
2023/05/08 13:35:54;;;;;;;6.75;3.70;;;;;;;;;;5015912;28;20033;-22
2023/05/08 13:38:20;;;;;;;4.53;2.83;;;;;;;;;;5014896;28;20097;-23
2023/05/08 13:40:46;;;;;;;11.60;3.83;;;;;;;;;;5015189;28;20026;-22
2023/05/08 13:43:12;;;;;;;6.13;3.60;;;;;;;;;;5014714;28;20088;-22
2023/05/08 13:45:38;;;;;;;7.97;2.92;;;;;;;;;;5014850;28;20021;-21
2023/05/08 13:48:04;;;;;;;9.75;3.63;;;;;;;;;;5014986;28;20101;-23
2023/05/08 13:50:30;;;;;;;5.38;3.63;;;;;;;;;;5014707;28;20365;-22
2023/05/08 13:52:58;;;;;;;7.15;2.88;;;;;;;;;;5014456;28;20057;-22
2023/05/08 13:55:24;;;;;;;6.65;3.95;;;;;;;;;;5014779;28;20026;-23
2023/05/08 13:57:50;;;;;;;6.03;3.38;;;;;;;;;;5015014;28;20084;-22
2023/05/08 14:00:17;;;;;;;8.25;3.42;;;;;;;;;;5014721;28;20052;-23
2023/05/08 14:02:43;;;;;;;4.63;3.70;;;;;;;;;;4993759;28;20050;-22
2023/05/08 14:05:09;;;;;;;5.80;3.22;;;;;;;;;;4995301;28;20117;-23
2023/05/08 14:07:35;;;;;;;8.48;4.18;;;;;;;;;;4994930;28;20030;-23
2023/05/08 14:10:01;;;;;;;5.82;3.40;;;;;;;;;;4994883;28;20041;-26
2023/05/08 14:12:28;;;;;;;4.47;3.53;;;;;;;;;;4995644;28;20412;-22
2023/05/08 14:14:54;;;;;;;8.85;3.85;;;;;;;;;;4994905;28;20019;-21
2023/05/08 14:17:20;;;;;;;3.72;3.10;;;;;;;;;;4994894;28;20089;-21
2023/05/08 14:19:46;;;;;;;3.53;3.22;;;;;;;;;;4995049;28;20359;-23
2023/05/08 14:22:12;;;;;;;7.05;3.88;;;;;;;;;;4994992;28;20041;-22
2023/05/08 14:24:38;;;;;;;6.43;3.30;;;;;;;;;;4995021;28;20026;-22
2023/05/08 14:27:05;;;;;;;8.02;3.92;;;;;;;;;;4995166;28;20093;-22
2023/05/08 14:29:32;;;;;;;6.78;3.65;;;;;;;;;;4995368;28;20461;-23
2023/05/08 14:31:58;;;;;;;11.70;3.60;;;;;;;;;;4994755;28;20062;-23
2023/05/08 14:34:24;;;;;;;6.95;4.00;;;;;;;;;;4995071;28;20509;-21
2023/05/08 14:36:50;;;;;;;10.32;3.65;;;;;;;;;;4995168;28;20022;-23
2023/05/08 14:39:16;;;;;;;4.45;2.97;;;;;;;;;;4994786;28;20034;-22
2023/05/08 14:41:42;;;;;;;5.13;3.70;;;;;;;;;;4994718;28;20042;-22
2023/05/08 14:44:09;;;;;;;6.75;3.47;;;;;;;;;;4994713;28;20030;-21
2023/05/08 14:46:35;;;;;;;8.50;3.67;;;;;;;;;;4998761;28;20054;-23
2023/05/08 14:49:01;;;;;;;5.30;3.80;;;;;;;;;;4998768;28;20109;-22